Time;durP1;ratioP1;P1;durP2;ratioP2;P2;SDS_P1;SDS_P2;PMS_P1;PMS_P2;Temp;Humidity;BMP_temperature;BMP_pressure;BME280_temperature;BME280_humidity;BME280_pressure;Samples;Min_cycle;Max_cycle;Signal;HPM_P1;HPM_P2
2023/04/04 00:00:15;;;;;;;20.03;6.07;;;14.80;54.20;;;;;;5010789;28;20919;-90
2023/04/04 00:02:42;;;;;;;35.90;6.30;;;14.80;54.20;;;;;;5012015;28;20672;-91
2023/04/04 00:05:09;;;;;;;31.43;6.17;;;14.80;54.20;;;;;;5010376;28;20259;-91
2023/04/04 00:07:36;;;;;;;29.43;6.00;;;14.80;54.30;;;;;;5011222;28;20268;-91
2023/04/04 00:10:03;;;;;;;46.33;7.00;;;14.80;54.20;;;;;;5006108;28;20208;-91
2023/04/04 00:12:31;;;;;;;27.60;5.83;;;14.80;54.30;;;;;;5011370;28;20650;-91
2023/04/04 00:14:58;;;;;;;40.63;6.83;;;14.80;54.20;;;;;;5011085;28;20214;-91
2023/04/04 00:17:25;;;;;;;35.23;6.87;;;14.80;54.20;;;;;;5010599;28;20649;-91
2023/04/04 00:19:56;;;;;;;31.00;6.30;;;14.80;54.30;;;;;;5010945;28;20205;-92
2023/04/04 00:22:22;;;;;;;27.73;6.07;;;14.80;54.10;;;;;;4993891;28;20689;-91
2023/04/04 00:24:50;;;;;;;27.20;6.07;;;14.70;54.10;;;;;;5010405;28;20681;-92
2023/04/04 00:27:17;;;;;;;24.13;5.50;;;14.70;54.10;;;;;;4997205;28;20215;-91
2023/04/04 00:29:45;;;;;;;31.40;6.30;;;14.70;54.10;;;;;;5014719;28;20201;-91
2023/04/04 00:32:12;;;;;;;27.83;5.63;;;14.70;54.10;;;;;;5011036;28;20206;-91
2023/04/04 00:34:39;;;;;;;28.80;6.23;;;14.70;54.10;;;;;;5010458;28;20201;-90
2023/04/04 00:37:06;;;;;;;69.40;9.43;;;14.70;54.30;;;;;;5009022;28;20212;-91
2023/04/04 00:39:33;;;;;;;27.07;6.27;;;14.70;54.10;;;;;;5014242;28;20208;-91
2023/04/04 00:42:00;;;;;;;35.43;6.73;;;14.70;54.10;;;;;;4993744;28;20289;-91
2023/04/04 00:44:27;;;;;;;29.17;5.67;;;14.70;54.10;;;;;;5011458;28;20196;-92
2023/04/04 00:46:55;;;;;;;26.83;5.57;;;14.70;54.10;;;;;;5010805;28;20217;-91
2023/04/04 00:49:22;;;;;;;31.10;6.27;;;14.70;54.00;;;;;;5010084;28;20236;-91
2023/04/04 00:51:49;;;;;;;44.73;8.00;;;14.70;54.10;;;;;;4992903;28;20882;-91
2023/04/04 00:54:16;;;;;;;24.53;5.57;;;14.70;54.10;;;;;;5011085;28;20634;-91
2023/04/04 00:56:43;;;;;;;35.53;7.07;;;14.70;54.00;;;;;;5010067;28;20209;-90
2023/04/04 00:59:10;;;;;;;44.00;7.40;;;14.60;53.90;;;;;;5008611;28;20236;-90
2023/04/04 01:01:37;;;;;;;28.03;5.80;;;14.60;54.00;;;;;;5010231;28;20209;-90
2023/04/04 01:04:06;;;;;;;31.23;6.33;;;14.60;54.00;;;;;;5005678;28;20212;-90
2023/04/04 01:06:33;;;;;;;26.20;6.07;;;14.60;53.90;;;;;;5012677;28;20224;-90
2023/04/04 01:09:00;;;;;;;29.33;6.30;;;14.60;53.90;;;;;;5007538;28;20215;-91
2023/04/04 01:11:27;;;;;;;53.53;7.60;;;14.70;54.00;;;;;;5000882;28;20202;-90
2023/04/04 01:13:54;;;;;;;45.20;7.40;;;14.50;53.90;;;;;;5008562;28;20594;-90
2023/04/04 01:16:22;;;;;;;48.83;7.93;;;14.60;54.00;;;;;;4990748;28;20197;-91
2023/04/04 01:18:50;;;;;;;27.23;6.23;;;14.50;53.80;;;;;;5008759;28;20951;-90
2023/04/04 01:21:21;;;;;;;27.83;6.07;;;14.50;53.80;;;;;;5024709;28;20220;-90
2023/04/04 01:23:58;;;;;;;30.43;6.37;;;14.50;53.80;;;;;;4993954;28;20368;-90
2023/04/04 01:26:27;;;;;;;30.00;6.07;;;14.50;53.80;;;;;;4991811;28;20235;-91
2023/04/04 01:28:54;;;;;;;28.53;6.10;;;14.50;53.80;;;;;;5009044;28;20209;-90
2023/04/04 01:31:27;;;;;;;23.27;5.73;;;14.50;54.50;;;;;;5013056;28;20210;-90
2023/04/04 01:34:02;;;;;;;32.00;6.30;;;14.50;53.80;;;;;;5010047;28;20201;-90
2023/04/04 01:36:36;;;;;;;25.17;6.20;;;14.50;53.80;;;;;;5008748;28;20203;-90
2023/04/04 01:39:15;;;;;;;48.30;7.40;;;14.50;53.80;;;;;;5008536;28;20210;-91
2023/04/04 01:41:47;;;;;;;20.37;5.33;;;14.50;53.70;;;;;;4994263;28;20656;-90
2023/04/04 01:44:15;;;;;;;25.70;5.73;;;14.40;53.70;;;;;;5009816;28;20209;-91
2023/04/04 01:46:42;;;;;;;24.53;5.30;;;14.40;53.80;;;;;;5007587;28;20583;-90
2023/04/04 01:49:09;;;;;;;27.83;5.77;;;14.40;53.80;;;;;;5009136;28;20205;-90
2023/04/04 01:51:37;;;;;;;46.50;7.10;;;14.40;53.80;;;;;;5008107;28;20234;-91
2023/04/04 01:54:05;;;;;;;40.00;7.13;;;14.40;53.80;;;;;;5009435;28;20214;-91
2023/04/04 01:56:32;;;;;;;28.30;6.20;;;14.40;53.70;;;;;;5008344;28;20556;-90
2023/04/04 01:59:01;;;;;;;32.20;6.13;;;14.40;53.80;;;;;;5009736;28;20259;-92
2023/04/04 02:01:28;;;;;;;30.30;6.43;;;14.40;53.70;;;;;;5009487;28;20206;-91
2023/04/04 02:03:57;;;;;;;48.73;7.63;;;14.30;53.70;;;;;;5007880;28;20217;-91
2023/04/04 02:06:24;;;;;;;29.17;6.03;;;14.30;53.70;;;;;;5008659;28;20698;-90
2023/04/04 02:08:51;;;;;;;29.37;6.00;;;14.40;53.80;;;;;;5002997;28;20295;-90
2023/04/04 02:11:21;;;;;;;24.97;5.90;;;14.30;53.70;;;;;;5008486;28;20228;-90
2023/04/04 02:13:48;;;;;;;30.73;6.63;;;14.30;53.70;;;;;;5008231;28;20749;-90
2023/04/04 02:16:17;;;;;;;35.47;6.27;;;14.30;53.70;;;;;;5008328;28;20209;-90
2023/04/04 02:18:43;;;;;;;34.00;6.50;;;14.30;53.70;;;;;;5009124;28;20232;-89
2023/04/04 02:21:10;;;;;;;26.40;5.93;;;14.30;53.70;;;;;;5008894;28;20205;-90
2023/04/04 02:23:38;;;;;;;38.57;7.07;;;14.20;53.60;;;;;;5006795;28;20238;-90
2023/04/04 02:26:05;;;;;;;33.17;6.27;;;14.40;53.80;;;;;;5009342;28;20232;-90
2023/04/04 02:28:32;;;;;;;28.43;6.07;;;14.30;53.70;;;;;;5008819;28;20214;-89
2023/04/04 02:31:01;;;;;;;36.20;6.83;;;14.30;54.00;;;;;;5008472;28;20214;-90
2023/04/04 02:33:30;;;;;;;39.77;7.13;;;14.10;53.50;;;;;;5008661;28;20207;-90
2023/04/04 02:35:57;;;;;;;35.03;6.60;;;14.20;53.60;;;;;;5008771;28;20267;-90
2023/04/04 02:38:24;;;;;;;25.17;6.10;;;14.20;53.60;;;;;;5008456;28;20684;-90
2023/04/04 02:40:51;;;;;;;30.13;6.17;;;14.20;53.60;;;;;;5008197;28;20215;-90
2023/04/04 02:43:18;;;;;;;48.60;7.70;;;14.30;53.70;;;;;;5007083;28;20211;-90
2023/04/04 02:45:47;;;;;;;25.17;6.13;;;14.20;53.60;;;;;;5007173;28;20218;-90
2023/04/04 02:48:14;;;;;;;30.07;6.07;;;14.20;53.60;;;;;;5011551;28;20337;-90
2023/04/04 02:50:42;;;;;;;24.90;6.40;;;14.20;53.60;;;;;;5007470;28;20214;-91
2023/04/04 02:53:10;;;;;;;28.43;6.57;;;14.20;53.60;;;;;;5008255;28;20204;-90
2023/04/04 02:55:37;;;;;;;21.67;5.73;;;14.20;53.60;;;;;;5007712;28;20208;-90
2023/04/04 02:58:04;;;;;;;63.40;9.13;;;14.10;53.50;;;;;;5006958;28;20288;-89
2023/04/04 03:00:31;;;;;;;29.00;6.67;;;14.20;53.60;;;;;;5008005;28;20206;-90
2023/04/04 03:02:58;;;;;;;33.57;7.00;;;14.10;53.50;;;;;;5004830;28;20212;-91
2023/04/04 03:05:25;;;;;;;32.03;6.13;;;14.00;53.40;;;;;;5007029;28;20198;-90
2023/04/04 03:07:56;;;;;;;39.10;7.43;;;14.10;53.50;;;;;;5008153;28;20200;-90
2023/04/04 03:10:24;;;;;;;33.33;6.70;;;14.10;53.50;;;;;;4993722;28;20210;-89
2023/04/04 03:12:51;;;;;;;30.03;6.37;;;14.10;53.40;;;;;;5008711;28;20229;-90
2023/04/04 03:15:18;;;;;;;37.40;7.17;;;14.10;53.50;;;;;;5006977;28;20209;-90
2023/04/04 03:17:45;;;;;;;42.17;7.40;;;14.00;53.30;;;;;;5007529;28;20603;-91
2023/04/04 03:20:13;;;;;;;29.07;6.17;;;14.00;53.30;;;;;;5009963;28;20654;-91
2023/04/04 03:22:40;;;;;;;27.13;6.47;;;14.00;53.30;;;;;;5008453;28;20213;-91
2023/04/04 03:25:11;;;;;;;24.90;6.10;;;14.00;53.30;;;;;;5011967;28;20240;-90
2023/04/04 03:27:39;;;;;;;25.93;6.27;;;14.00;53.30;;;;;;5007775;28;20225;-91
2023/04/04 03:30:08;;;;;;;41.03;7.30;;;14.00;53.30;;;;;;5008441;28;20603;-89
2023/04/04 03:32:36;;;;;;;37.43;6.63;;;14.00;53.30;;;;;;5005018;28;20220;-91
2023/04/04 03:35:03;;;;;;;43.80;7.67;;;14.00;53.30;;;;;;5008042;28;20260;-90
2023/04/04 03:37:30;;;;;;;31.20;6.87;;;14.00;53.30;;;;;;5011019;28;20202;-90
2023/04/04 03:39:57;;;;;;;33.93;6.57;;;14.00;53.30;;;;;;5011941;28;20212;-90
2023/04/04 03:42:26;;;;;;;58.27;9.33;;;14.00;53.30;;;;;;5011045;28;20297;-89
2023/04/04 03:44:53;;;;;;;24.40;6.07;;;14.00;53.20;;;;;;5017696;28;20197;-89
2023/04/04 03:47:21;;;;;;;23.53;5.87;;;13.80;53.10;;;;;;5015447;28;20230;-93
2023/04/04 03:49:50;;;;;;;35.07;6.80;;;13.90;53.20;;;;;;5015184;28;20209;-89
2023/04/04 03:52:17;;;;;;;30.83;7.20;;;13.90;53.30;;;;;;5012498;28;20231;-91
2023/04/04 03:54:44;;;;;;;29.53;6.40;;;13.90;53.20;;;;;;5011035;28;20204;-91
2023/04/04 03:57:11;;;;;;;30.60;6.53;;;13.90;53.20;;;;;;5009112;28;20217;-90
2023/04/04 03:59:40;;;;;;;30.80;6.33;;;13.90;53.30;;;;;;5012212;28;20221;-90
2023/04/04 04:02:08;;;;;;;25.63;5.63;;;13.90;53.20;;;;;;5011753;28;20287;-92
2023/04/04 04:04:35;;;;;;;30.90;6.53;;;13.90;53.30;;;;;;5011409;28;20213;-92
2023/04/04 04:07:02;;;;;;;40.63;6.90;;;13.80;53.20;;;;;;5011552;28;20229;-90
2023/04/04 04:09:29;;;;;;;32.10;6.50;;;13.80;53.20;;;;;;5011600;28;20643;-90
2023/04/04 04:11:56;;;;;;;27.23;6.07;;;13.90;53.30;;;;;;5010698;28;20682;-91
2023/04/04 04:14:23;;;;;;;64.10;9.80;;;13.80;53.20;;;;;;5009656;28;20590;-90
2023/04/04 04:16:51;;;;;;;48.07;7.93;;;13.80;53.20;;;;;;5008116;28;20869;-92
2023/04/04 04:19:19;;;;;;;37.27;7.50;;;13.80;53.10;;;;;;5011927;28;20242;-92
2023/04/04 04:21:46;;;;;;;24.13;5.90;;;13.80;53.20;;;;;;5011790;28;20207;-91
2023/04/04 04:24:14;;;;;;;57.10;8.67;;;13.80;53.10;;;;;;5011078;28;20640;-91
2023/04/04 04:26:41;;;;;;;29.03;6.27;;;13.80;53.10;;;;;;5011616;28;20251;-92
2023/04/04 04:29:08;;;;;;;31.87;7.17;;;13.70;53.00;;;;;;5003847;28;20209;-92
2023/04/04 04:31:35;;;;;;;23.23;6.23;;;13.70;53.00;;;;;;5011117;28;20931;-91
2023/04/04 04:34:07;;;;;;;33.00;6.83;;;13.80;53.10;;;;;;5010533;28;20211;-90
2023/04/04 04:36:34;;;;;;;34.43;7.03;;;13.70;52.90;;;;;;4991804;28;20327;-89
2023/04/04 04:39:01;;;;;;;44.57;7.90;;;13.70;53.00;;;;;;5010700;28;20208;-89
2023/04/04 04:41:28;;;;;;;30.33;5.97;;;13.70;53.00;;;;;;5012147;28;20201;-91
2023/04/04 04:43:55;;;;;;;29.63;5.97;;;13.70;53.00;;;;;;5013468;28;20209;-90
2023/04/04 04:46:22;;;;;;;38.97;6.93;;;13.70;53.00;;;;;;5009293;28;20266;-89
2023/04/04 04:48:49;;;;;;;35.77;7.47;;;13.70;53.00;;;;;;5021996;28;20586;-91
2023/04/04 04:51:18;;;;;;;33.10;6.90;;;13.70;53.00;;;;;;5011042;28;20284;-92
2023/04/04 04:53:45;;;;;;;31.27;6.67;;;13.60;52.90;;;;;;5010590;28;20197;-89
2023/04/04 04:56:12;;;;;;;35.07;6.93;;;13.60;52.90;;;;;;5012643;28;20602;-90
2023/04/04 04:58:38;;;;;;;32.90;6.67;;;13.80;53.10;;;;;;5010585;28;20252;-90
2023/04/04 05:01:06;;;;;;;51.23;8.27;;;13.60;52.90;;;;;;5010698;28;20208;-90
2023/04/04 05:03:33;;;;;;;25.40;6.37;;;13.60;52.90;;;;;;5010328;28;20298;-90
2023/04/04 05:06:00;;;;;;;41.07;7.67;;;13.60;52.90;;;;;;5010031;28;20212;-90
2023/04/04 05:08:29;;;;;;;44.27;7.77;;;13.60;52.80;;;;;;5011566;28;20202;-90
2023/04/04 05:10:56;;;;;;;49.30;8.93;;;13.60;52.80;;;;;;5010207;28;20209;-91
2023/04/04 05:13:23;;;;;;;31.83;7.77;;;13.60;52.90;;;;;;5010308;28;20218;-90
2023/04/04 05:15:50;;;;;;;31.37;7.27;;;13.60;52.80;;;;;;5010752;28;20190;-90
2023/04/04 05:18:17;;;;;;;25.27;6.80;;;13.60;52.80;;;;;;5010342;28;20580;-90
2023/04/04 05:20:49;;;;;;;21.00;6.17;;;13.50;52.70;;;;;;5010338;28;20194;-88
2023/04/04 05:23:16;;;;;;;23.10;6.53;;;13.50;52.70;;;;;;5007213;28;20241;-89
2023/04/04 05:25:45;;;;;;;32.00;7.20;;;13.50;52.80;;;;;;5009495;28;20210;-90
2023/04/04 05:28:11;;;;;;;36.53;7.20;;;13.50;52.70;;;;;;5007650;28;20244;-89
2023/04/04 05:30:38;;;;;;;25.50;6.00;;;13.50;52.70;;;;;;5006740;28;20212;-90
2023/04/04 05:33:05;;;;;;;26.90;6.97;;;13.50;52.80;;;;;;5004851;28;20202;-92
2023/04/04 05:35:32;;;;;;;54.33;8.63;;;13.50;53.30;;;;;;5006554;28;20256;-90
2023/04/04 05:37:59;;;;;;;32.97;7.23;;;13.50;52.70;;;;;;5009757;28;20692;-91
2023/04/04 05:40:26;;;;;;;35.80;6.50;;;13.50;52.70;;;;;;5010614;28;20203;-91
2023/04/04 05:42:58;;;;;;;31.23;7.17;;;13.40;52.60;;;;;;5009092;28;20199;-91
2023/04/04 05:45:25;;;;;;;27.33;6.63;;;13.50;52.70;;;;;;5009449;28;20210;-92
2023/04/04 05:47:52;;;;;;;33.30;7.37;;;13.40;52.70;;;;;;5010479;28;20222;-91
2023/04/04 05:50:22;;;;;;;32.30;7.23;;;13.40;52.60;;;;;;5010521;28;20206;-92
2023/04/04 05:52:48;;;;;;;34.00;7.40;;;13.40;52.60;;;;;;5007476;28;20205;-92
2023/04/04 05:55:15;;;;;;;32.90;7.23;;;13.40;52.60;;;;;;5009680;28;20297;-92
2023/04/04 05:57:48;;;;;;;23.27;6.43;;;13.40;52.60;;;;;;5009152;28;20224;-92
2023/04/04 06:00:18;;;;;;;37.73;7.37;;;13.40;52.50;;;;;;5010561;28;20207;-92
2023/04/04 06:02:45;;;;;;;25.77;6.47;;;13.40;52.60;;;;;;5012374;28;20253;-92
2023/04/04 06:05:14;;;;;;;27.60;6.50;;;13.30;52.60;;;;;;5012215;28;20351;-91
2023/04/04 06:07:41;;;;;;;31.50;6.87;;;13.30;52.60;;;;;;5023684;28;20233;-92
2023/04/04 06:10:09;;;;;;;52.70;8.50;;;13.30;52.60;;;;;;5010096;28;20211;-92
2023/04/04 06:12:38;;;;;;;57.77;9.13;;;13.30;52.60;;;;;;5016640;28;20210;-92
2023/04/04 06:15:06;;;;;;;36.47;6.93;;;13.30;52.50;;;;;;5017501;28;20199;-92
2023/04/04 06:17:34;;;;;;;49.83;8.70;;;13.30;52.60;;;;;;5008852;28;20207;-92
2023/04/04 06:20:01;;;;;;;37.63;7.30;;;13.20;52.50;;;;;;5012812;28;20249;-90
2023/04/04 06:22:30;;;;;;;32.30;6.87;;;13.30;52.60;;;;;;4990324;28;20212;-90
2023/04/04 06:24:57;;;;;;;33.63;7.33;;;13.20;52.50;;;;;;5009228;28;20617;-89
2023/04/04 06:27:24;;;;;;;37.60;7.30;;;13.30;52.60;;;;;;5007372;28;20260;-90
2023/04/04 06:29:51;;;;;;;37.70;7.73;;;13.20;52.60;;;;;;5008497;28;20575;-92
2023/04/04 06:32:18;;;;;;;30.93;6.60;;;13.20;52.50;;;;;;5008610;28;20210;-90
2023/04/04 06:34:46;;;;;;;29.13;6.63;;;13.20;52.60;;;;;;5009745;28;20196;-90
2023/04/04 06:37:13;;;;;;;35.90;7.97;;;13.30;52.60;;;;;;5010341;28;20219;-90
2023/04/04 06:39:40;;;;;;;37.70;7.27;;;13.20;52.50;;;;;;5008157;28;20212;-89
2023/04/04 06:42:07;;;;;;;37.77;7.30;;;13.20;52.60;;;;;;5005758;28;20291;-90
2023/04/04 06:44:34;;;;;;;36.03;7.50;;;13.20;52.60;;;;;;5009465;28;20198;-89
2023/04/04 06:47:04;;;;;;;34.27;7.70;;;13.20;52.60;;;;;;5009463;28;20237;-90
2023/04/04 06:49:30;;;;;;;20.57;5.93;;;13.20;52.50;;;;;;5012823;28;20208;-90
2023/04/04 06:51:59;;;;;;;37.37;8.07;;;13.20;52.60;;;;;;5008805;28;20208;-90
2023/04/04 06:54:26;;;;;;;31.33;7.00;;;13.20;52.50;;;;;;5008685;28;20208;-95
2023/04/04 06:56:53;;;;;;;25.40;6.80;;;13.10;52.40;;;;;;5010233;28;20282;-93
2023/04/04 06:59:23;;;;;;;64.70;9.73;;;13.10;52.40;;;;;;5010076;28;20211;-88
2023/04/04 07:01:51;;;;;;;47.20;8.37;;;13.10;52.40;;;;;;5011119;28;20301;-91
2023/04/04 07:04:19;;;;;;;30.73;7.77;;;13.10;52.40;;;;;;5013323;28;20320;-90
2023/04/04 07:06:46;;;;;;;36.57;7.40;;;13.10;52.40;;;;;;5008394;28;20284;-88
2023/04/04 07:09:16;;;;;;;28.90;6.97;;;13.10;52.40;;;;;;5009534;28;20242;-95
2023/04/04 07:11:42;;;;;;;35.83;7.37;;;13.10;52.50;;;;;;5012853;28;20229;-89
2023/04/04 07:14:09;;;;;;;29.30;7.10;;;13.10;52.60;;;;;;5012418;28;20200;-89
2023/04/04 07:16:36;;;;;;;30.43;7.27;;;13.10;52.60;;;;;;5011867;28;20217;-89
2023/04/04 07:19:05;;;;;;;46.93;8.03;;;13.10;52.60;;;;;;5012922;28;20199;-91
2023/04/04 07:21:32;;;;;;;63.27;9.03;;;13.10;52.70;;;;;;5009549;28;20242;-91
2023/04/04 07:24:01;;;;;;;33.53;7.20;;;13.10;52.70;;;;;;5010053;28;20209;-95
2023/04/04 07:26:29;;;;;;;22.70;6.43;;;13.10;52.70;;;;;;5011057;28;20290;-91
2023/04/04 07:28:56;;;;;;;24.07;6.73;;;13.10;52.70;;;;;;5012554;28;20217;-94
2023/04/04 07:31:26;;;;;;;29.23;6.67;;;13.10;52.60;;;;;;5016562;28;20978;-94
2023/04/04 07:33:54;;;;;;;33.60;8.23;;;13.10;52.60;;;;;;5020016;28;20214;-93
2023/04/04 07:36:21;;;;;;;57.23;9.77;;;13.00;52.60;;;;;;5013181;28;20238;-93
2023/04/04 07:38:49;;;;;;;37.90;8.43;;;13.10;52.70;;;;;;5018102;28;20210;-94
2023/04/04 07:41:17;;;;;;;41.70;8.80;;;13.00;52.70;;;;;;5011249;28;20210;-93
2023/04/04 07:43:45;;;;;;;35.43;8.83;;;13.00;52.70;;;;;;5013882;28;20202;-92
2023/04/04 07:46:13;;;;;;;21.20;7.53;;;13.00;52.60;;;;;;5012611;28;20658;-92
2023/04/04 07:48:40;;;;;;;33.67;8.07;;;13.10;52.80;;;;;;5011606;28;20714;-92
2023/04/04 07:51:07;;;;;;;48.10;9.30;;;13.10;52.70;;;;;;5012129;28;20203;-94
2023/04/04 07:53:35;;;;;;;41.03;9.13;;;13.00;53.30;;;;;;5011502;28;20670;-93
2023/04/04 07:56:05;;;;;;;34.63;8.37;;;13.00;52.60;;;;;;5021113;28;20229;-94
2023/04/04 07:58:32;;;;;;;57.33;9.10;;;13.00;52.60;;;;;;5014680;28;20281;-92
2023/04/04 08:01:00;;;;;;;36.00;7.97;;;13.10;52.60;;;;;;5011774;28;20213;-92
2023/04/04 08:03:30;;;;;;;44.60;8.23;;;13.10;52.60;;;;;;5009444;28;20678;-89
2023/04/04 08:05:59;;;;;;;41.13;8.90;;;13.10;52.60;;;;;;5005223;28;20653;-89
2023/04/04 08:08:26;;;;;;;53.13;9.20;;;13.10;52.60;;;;;;5009294;28;20243;-90
2023/04/04 08:10:53;;;;;;;36.97;8.80;;;13.10;52.60;;;;;;5010672;28;20290;-89
2023/04/04 08:13:20;;;;;;;38.20;8.60;;;13.10;52.70;;;;;;5011588;28;20576;-89
2023/04/04 08:15:48;;;;;;;33.80;8.00;;;13.00;52.70;;;;;;5010956;28;20204;-91
2023/04/04 08:18:17;;;;;;;39.30;8.87;;;13.00;52.80;;;;;;5011309;28;20183;-90
2023/04/04 08:20:43;;;;;;;30.90;7.67;;;13.10;52.90;;;;;;5010436;28;20204;-91
2023/04/04 08:23:11;;;;;;;43.53;8.07;;;13.10;52.90;;;;;;5006903;28;20238;-91
2023/04/04 08:25:39;;;;;;;39.40;8.00;;;13.10;52.70;;;;;;5010612;28;20206;-92
2023/04/04 08:28:06;;;;;;;54.30;9.70;;;13.10;52.40;;;;;;5010590;28;20231;-91
2023/04/04 08:30:32;;;;;;;34.03;7.93;;;13.20;52.40;;;;;;5011625;28;20214;-94
2023/04/04 08:32:59;;;;;;;53.43;9.87;;;13.20;52.30;;;;;;5010068;28;20261;-90
2023/04/04 08:35:27;;;;;;;35.07;6.83;;;13.10;52.20;;;;;;5009636;28;20206;-91
2023/04/04 08:37:54;;;;;;;30.43;7.40;;;13.10;52.20;;;;;;5010324;28;20211;-91
2023/04/04 08:40:22;;;;;;;55.80;8.90;;;13.20;52.40;;;;;;5009533;28;20211;-88
2023/04/04 08:42:51;;;;;;;34.53;7.43;;;13.20;52.40;;;;;;5010265;28;20248;-88
2023/04/04 08:45:19;;;;;;;34.60;7.63;;;13.20;52.40;;;;;;5010369;28;20215;-88
2023/04/04 08:47:48;;;;;;;30.83;7.17;;;13.20;52.60;;;;;;5009624;28;20228;-89
2023/04/04 08:50:17;;;;;;;27.97;6.67;;;13.20;52.60;;;;;;5009538;28;20256;-88
2023/04/04 08:52:47;;;;;;;40.23;7.53;;;13.30;52.70;;;;;;5010006;28;20210;-89
2023/04/04 08:55:14;;;;;;;33.63;6.57;;;13.30;52.70;;;;;;5010222;28;20654;-87
2023/04/04 08:57:42;;;;;;;32.93;7.17;;;13.30;52.70;;;;;;5010722;28;20219;-88
2023/04/04 09:00:09;;;;;;;36.60;7.50;;;13.30;52.70;;;;;;5010373;28;20215;-89
2023/04/04 09:02:42;;;;;;;32.43;7.17;;;13.30;52.80;;;;;;5009489;28;20224;-89
2023/04/04 09:05:09;;;;;;;32.70;6.83;;;13.30;52.80;;;;;;5009415;28;20243;-89
2023/04/04 09:07:37;;;;;;;30.93;6.73;;;13.30;52.80;;;;;;5009067;28;20240;-88
2023/04/04 09:10:09;;;;;;;36.73;7.30;;;13.40;52.90;;;;;;5008339;28;20578;-88
2023/04/04 09:12:37;;;;;;;29.50;7.07;;;13.30;52.90;;;;;;5009523;28;20259;-89
2023/04/04 09:15:05;;;;;;;51.93;8.13;;;13.40;53.60;;;;;;5009716;28;20583;-89
2023/04/04 09:17:31;;;;;;;33.87;6.40;;;13.40;53.00;;;;;;5009033;28;20214;-88
2023/04/04 09:20:02;;;;;;;31.97;6.90;;;13.40;53.00;;;;;;5009667;28;20235;-89
2023/04/04 09:22:31;;;;;;;30.17;6.53;;;13.40;53.00;;;;;;5009507;28;20225;-89
2023/04/04 09:24:58;;;;;;;28.73;6.27;;;13.40;53.10;;;;;;5008071;28;20226;-88
2023/04/04 09:27:26;;;;;;;27.90;6.53;;;13.50;53.20;;;;;;5009262;28;20203;-88
2023/04/04 09:29:53;;;;;;;30.30;6.97;;;13.50;53.10;;;;;;4992794;28;20204;-89
2023/04/04 09:32:21;;;;;;;27.47;6.17;;;13.40;53.10;;;;;;5009031;28;20205;-89
2023/04/04 09:34:48;;;;;;;41.13;7.73;;;13.50;53.20;;;;;;5007670;28;20209;-88
2023/04/04 09:37:17;;;;;;;30.90;6.53;;;13.50;53.20;;;;;;5007768;28;20220;-88
2023/04/04 09:39:45;;;;;;;31.83;6.50;;;13.50;53.30;;;;;;5007113;28;20205;-88
2023/04/04 09:42:12;;;;;;;55.53;8.23;;;13.60;53.30;;;;;;5007874;28;20208;-87
2023/04/04 09:44:40;;;;;;;26.27;5.57;;;13.60;53.40;;;;;;5009187;28;20187;-88
2023/04/04 09:47:26;;;;;;;36.37;6.67;;;13.60;53.40;;;;;;5009233;28;20211;-88
2023/04/04 09:49:53;;;;;;;34.07;6.40;;;13.60;53.40;;;;;;5008273;28;20239;-88
2023/04/04 09:52:20;;;;;;;27.07;6.33;;;13.60;53.40;;;;;;5009128;28;20214;-89
2023/04/04 09:54:56;;;;;;;24.13;5.83;;;13.70;53.50;;;;;;5005465;28;20286;-91
2023/04/04 09:57:26;;;;;;;33.70;6.60;;;13.70;53.50;;;;;;5007651;28;20606;-95
2023/04/04 09:59:57;;;;;;;32.97;6.30;;;13.70;53.50;;;;;;5008497;28;20661;-95
2023/04/04 10:02:25;;;;;;;28.33;6.23;;;13.70;53.50;;;;;;5015693;28;20759;-90
2023/04/04 10:04:53;;;;;;;27.50;6.23;;;13.80;53.60;;;;;;5008294;28;20204;-93
2023/04/04 10:07:22;;;;;;;22.70;5.47;;;13.80;53.50;;;;;;5013420;28;20668;-96
2023/04/04 10:09:51;;;;;;;26.43;6.03;;;13.80;53.50;;;;;;5011359;28;20252;-95
2023/04/04 10:12:22;;;;;;;27.53;5.93;;;13.90;53.60;;;;;;5010815;28;20235;-94
2023/04/04 10:15:07;;;;;;;18.63;5.60;;;13.90;53.60;;;;;;5011073;28;20216;-90
2023/04/04 10:17:38;;;;;;;26.10;6.40;;;13.90;53.70;;;;;;5020069;28;20197;-91
2023/04/04 10:20:09;;;;;;;30.20;6.27;;;13.90;53.70;;;;;;5008184;28;20212;-90
2023/04/04 10:22:38;;;;;;;30.13;6.33;;;14.00;53.70;;;;;;5011118;28;20229;-93
2023/04/04 10:25:08;;;;;;;26.30;5.77;;;14.00;53.70;;;;;;4990991;28;20194;-92
2023/04/04 10:27:36;;;;;;;36.53;6.50;;;14.00;53.70;;;;;;5008458;28;20218;-93
2023/04/04 10:30:06;;;;;;;50.03;7.27;;;14.00;53.70;;;;;;5008068;28;20220;-92
2023/04/04 10:32:43;;;;;;;27.53;6.17;;;14.10;53.80;;;;;;5009143;28;20203;-92
2023/04/04 10:35:12;;;;;;;22.97;5.60;;;14.10;53.80;;;;;;5008721;28;20581;-92
2023/04/04 10:37:47;;;;;;;33.37;5.97;;;14.20;53.90;;;;;;5008885;28;20213;-92
2023/04/04 10:40:18;;;;;;;41.30;7.37;;;14.20;53.90;;;;;;5008214;28;20205;-92
2023/04/04 10:42:46;;;;;;;23.60;5.93;;;14.10;53.80;;;;;;4990584;28;20210;-92
2023/04/04 10:45:19;;;;;;;35.00;6.17;;;14.20;53.90;;;;;;5012197;28;20703;-92
2023/04/04 10:47:46;;;;;;;29.93;5.93;;;14.20;53.90;;;;;;5015914;28;20212;-93
2023/04/04 10:50:14;;;;;;;23.53;5.20;;;14.30;54.00;;;;;;4997837;28;20247;-93
2023/04/04 10:52:43;;;;;;;36.53;6.23;;;14.30;53.90;;;;;;4994555;28;20258;-92
2023/04/04 10:55:13;;;;;;;28.37;5.50;;;14.40;54.00;;;;;;4994529;28;20202;-94
2023/04/04 10:57:43;;;;;;;31.80;5.80;;;14.40;54.00;;;;;;4994174;28;20206;-93
2023/04/04 11:00:13;;;;;;;35.77;6.30;;;14.40;54.00;;;;;;4995818;28;20204;-93
2023/04/04 11:02:50;;;;;;;31.77;5.90;;;14.50;54.10;;;;;;5013781;28;20201;-93
2023/04/04 11:05:22;;;;;;;34.80;6.57;;;14.40;54.00;;;;;;5013629;28;20208;-93
2023/04/04 11:07:54;;;;;;;31.83;5.90;;;14.50;54.10;;;;;;4993945;28;20217;-93
2023/04/04 11:10:24;;;;;;;31.43;6.00;;;14.60;54.20;;;;;;4993870;28;20755;-92
2023/04/04 11:12:55;;;;;;;26.53;5.87;;;14.50;54.10;;;;;;4994486;28;20198;-91
2023/04/04 11:15:23;;;;;;;24.30;5.47;;;14.70;54.30;;;;;;4997872;28;20239;-93
2023/04/04 11:17:56;;;;;;;47.37;7.37;;;14.60;54.20;;;;;;5012244;28;20676;-93
2023/04/04 11:20:24;;;;;;;28.50;5.43;;;14.60;54.20;;;;;;4998980;28;20329;-93
2023/04/04 11:23:02;;;;;;;32.87;6.47;;;14.70;54.30;;;;;;5013337;28;20233;-93
2023/04/04 11:25:36;;;;;;;43.40;6.57;;;14.70;54.30;;;;;;5008623;28;20229;-92
2023/04/04 11:28:14;;;;;;;29.23;6.43;;;14.70;54.30;;;;;;5009596;28;20204;-93
2023/04/04 11:30:49;;;;;;;19.87;5.20;;;14.70;54.30;;;;;;5012834;28;20216;-93
2023/04/04 11:33:27;;;;;;;29.43;5.50;;;14.80;54.30;;;;;;5012228;28;20300;-93
2023/04/04 11:36:04;;;;;;;27.07;5.73;;;14.80;54.30;;;;;;5011118;28;20209;-93
2023/04/04 11:38:32;;;;;;;41.77;6.43;;;15.00;54.50;;;;;;5011274;28;20704;-94
2023/04/04 11:40:59;;;;;;;26.20;5.90;;;14.90;54.50;;;;;;5012333;28;20208;-93
2023/04/04 11:43:27;;;;;;;25.97;6.03;;;14.90;54.40;;;;;;5008733;28;20213;-93
2023/04/04 11:45:55;;;;;;;24.63;5.70;;;14.90;54.40;;;;;;5012973;28;20201;-93
2023/04/04 11:48:23;;;;;;;24.57;4.90;;;15.00;54.50;;;;;;5012808;28;20220;-94
2023/04/04 11:50:55;;;;;;;24.73;5.13;;;15.00;54.50;;;;;;5013435;28;20289;-94
2023/04/04 11:53:22;;;;;;;19.70;4.93;;;15.00;54.50;;;;;;5013051;28;20266;-94
2023/04/04 11:55:50;;;;;;;25.03;4.97;;;15.00;54.50;;;;;;5012903;28;20293;-93
2023/04/04 11:58:18;;;;;;;26.83;5.57;;;15.10;54.60;;;;;;5012295;28;20260;-93
2023/04/04 12:00:46;;;;;;;30.83;6.10;;;15.10;54.60;;;;;;5012378;28;20204;-93
2023/04/04 12:03:17;;;;;;;29.77;5.97;;;15.10;54.60;;;;;;5012595;28;20212;-93
2023/04/04 12:05:44;;;;;;;33.03;6.27;;;15.20;54.70;;;;;;5012346;28;20212;-93
2023/04/04 12:08:14;;;;;;;29.23;5.73;;;15.20;54.70;;;;;;5012237;28;20226;-93
2023/04/04 12:10:43;;;;;;;21.80;5.07;;;15.20;54.70;;;;;;5011704;28;20293;-94
2023/04/04 12:13:10;;;;;;;31.37;6.20;;;15.20;54.70;;;;;;5012850;28;20196;-93
2023/04/04 12:15:38;;;;;;;19.43;5.20;;;15.30;54.70;;;;;;4994146;28;20228;-93
2023/04/04 12:18:09;;;;;;;28.73;6.00;;;15.30;55.30;;;;;;4993971;28;20577;-92
2023/04/04 12:20:38;;;;;;;24.20;5.73;;;15.30;54.70;;;;;;4997256;28;20531;-93
2023/04/04 12:23:06;;;;;;;25.93;5.63;;;15.40;54.80;;;;;;4994369;28;20237;-94
2023/04/04 12:25:38;;;;;;;28.23;5.30;;;15.40;54.70;;;;;;4992312;28;20209;-93
2023/04/04 12:28:09;;;;;;;23.20;5.47;;;15.30;54.70;;;;;;4992879;28;20269;-93
2023/04/04 12:30:39;;;;;;;21.53;5.30;;;15.40;54.70;;;;;;4993741;28;20840;-93
2023/04/04 12:33:08;;;;;;;23.97;5.30;;;15.50;54.80;;;;;;4993086;28;20742;-95
2023/04/04 12:35:35;;;;;;;21.33;5.23;;;15.50;54.80;;;;;;4994512;28;20264;-94
2023/04/04 12:38:09;;;;;;;38.27;6.67;;;15.50;54.80;;;;;;5011413;28;21066;-93
2023/04/04 12:40:39;;;;;;;21.77;5.17;;;15.60;54.80;;;;;;5011428;28;20207;-93